sensor_id;sensor_type;location;lat;lon;timestamp;P1;durP1;ratioP1;P2;durP2;ratioP2
51836;SDS011;38941;53.254;6.600;2023-07-20T00:00:19;3.90;;;1.08;;
51836;SDS011;38941;53.254;6.600;2023-07-20T00:02:20;2.63;;;1.13;;
51836;SDS011;38941;53.254;6.600;2023-07-20T00:04:21;1.50;;;0.90;;
51836;SDS011;38941;53.254;6.600;2023-07-20T00:06:22;4.28;;;1.30;;
51836;SDS011;38941;53.254;6.600;2023-07-20T00:08:24;2.33;;;1.33;;
51836;SDS011;38941;53.254;6.600;2023-07-20T00:10:25;2.50;;;0.90;;
51836;SDS011;38941;53.254;6.600;2023-07-20T00:12:26;1.13;;;1.02;;
51836;SDS011;38941;53.254;6.600;2023-07-20T00:14:26;1.73;;;1.00;;
51836;SDS011;38941;53.254;6.600;2023-07-20T00:16:27;3.10;;;1.38;;
51836;SDS011;38941;53.254;6.600;2023-07-20T00:18:28;1.33;;;1.20;;
51836;SDS011;38941;53.254;6.600;2023-07-20T00:20:29;2.25;;;1.20;;
51836;SDS011;38941;53.254;6.600;2023-07-20T00:22:29;2.13;;;0.95;;
51836;SDS011;38941;53.254;6.600;2023-07-20T00:24:30;3.58;;;1.17;;
51836;SDS011;38941;53.254;6.600;2023-07-20T00:26:32;1.83;;;1.17;;
51836;SDS011;38941;53.254;6.600;2023-07-20T00:28:33;3.20;;;1.40;;
51836;SDS011;38941;53.254;6.600;2023-07-20T00:30:33;2.30;;;1.25;;
51836;SDS011;38941;53.254;6.600;2023-07-20T00:32:34;3.67;;;1.30;;
51836;SDS011;38941;53.254;6.600;2023-07-20T00:34:35;4.07;;;1.20;;
51836;SDS011;38941;53.254;6.600;2023-07-20T00:36:35;3.67;;;1.60;;
51836;SDS011;38941;53.254;6.600;2023-07-20T00:38:36;6.07;;;1.50;;
51836;SDS011;38941;53.254;6.600;2023-07-20T00:40:37;2.00;;;1.17;;
51836;SDS011;38941;53.254;6.600;2023-07-20T00:42:38;2.05;;;1.13;;
51836;SDS011;38941;53.254;6.600;2023-07-20T00:44:39;2.03;;;1.45;;
51836;SDS011;38941;53.254;6.600;2023-07-20T00:46:40;2.53;;;1.33;;
51836;SDS011;38941;53.254;6.600;2023-07-20T00:48:41;2.22;;;1.10;;
51836;SDS011;38941;53.254;6.600;2023-07-20T00:50:42;1.65;;;1.27;;
51836;SDS011;38941;53.254;6.600;2023-07-20T00:52:44;3.08;;;1.65;;
51836;SDS011;38941;53.254;6.600;2023-07-20T00:54:45;3.25;;;1.10;;
51836;SDS011;38941;53.254;6.600;2023-07-20T00:56:47;3.70;;;1.40;;
51836;SDS011;38941;53.254;6.600;2023-07-20T00:58:49;5.63;;;1.65;;
51836;SDS011;38941;53.254;6.600;2023-07-20T01:00:50;4.47;;;1.50;;
51836;SDS011;38941;53.254;6.600;2023-07-20T01:02:51;2.72;;;1.40;;
51836;SDS011;38941;53.254;6.600;2023-07-20T01:04:52;1.65;;;1.30;;
51836;SDS011;38941;53.254;6.600;2023-07-20T01:11:16;3.97;;;2.38;;
51836;SDS011;38941;53.254;6.600;2023-07-20T01:13:32;2.08;;;1.35;;
51836;SDS011;38941;53.254;6.600;2023-07-20T01:15:33;2.65;;;1.20;;
51836;SDS011;38941;53.254;6.600;2023-07-20T01:17:35;2.22;;;1.38;;
51836;SDS011;38941;53.254;6.600;2023-07-20T01:19:36;1.80;;;1.27;;
51836;SDS011;38941;53.254;6.600;2023-07-20T01:21:45;2.05;;;1.38;;
51836;SDS011;38941;53.254;6.600;2023-07-20T01:26:23;1.83;;;1.23;;
51836;SDS011;38941;53.254;6.600;2023-07-20T01:34:59;4.00;;;1.48;;
51836;SDS011;38941;53.254;6.600;2023-07-20T01:37:02;2.08;;;1.60;;
51836;SDS011;38941;53.254;6.600;2023-07-20T01:39:03;2.70;;;1.20;;
51836;SDS011;38941;53.254;6.600;2023-07-20T01:41:06;1.73;;;1.40;;
51836;SDS011;38941;53.254;6.600;2023-07-20T01:43:06;2.85;;;1.40;;
51836;SDS011;38941;53.254;6.600;2023-07-20T01:45:07;2.10;;;1.30;;
51836;SDS011;38941;53.254;6.600;2023-07-20T01:47:08;2.35;;;1.50;;
51836;SDS011;38941;53.254;6.600;2023-07-20T01:49:09;2.33;;;1.50;;
51836;SDS011;38941;53.254;6.600;2023-07-20T01:51:10;1.58;;;1.25;;
51836;SDS011;38941;53.254;6.600;2023-07-20T01:53:12;3.67;;;2.30;;
51836;SDS011;38941;53.254;6.600;2023-07-20T01:55:13;1.40;;;1.30;;
51836;SDS011;38941;53.254;6.600;2023-07-20T01:57:13;3.47;;;1.35;;
51836;SDS011;38941;53.254;6.600;2023-07-20T01:59:14;3.03;;;1.70;;
51836;SDS011;38941;53.254;6.600;2023-07-20T02:01:15;3.55;;;1.52;;
51836;SDS011;38941;53.254;6.600;2023-07-20T02:03:15;2.20;;;1.60;;
51836;SDS011;38941;53.254;6.600;2023-07-20T02:05:16;2.80;;;1.30;;
51836;SDS011;38941;53.254;6.600;2023-07-20T02:07:17;2.38;;;1.40;;
51836;SDS011;38941;53.254;6.600;2023-07-20T02:09:18;1.48;;;1.30;;
51836;SDS011;38941;53.254;6.600;2023-07-20T02:11:20;1.90;;;1.30;;
51836;SDS011;38941;53.254;6.600;2023-07-20T02:13:20;3.45;;;1.55;;
51836;SDS011;38941;53.254;6.600;2023-07-20T02:15:21;2.53;;;1.50;;
51836;SDS011;38941;53.254;6.600;2023-07-20T02:17:22;1.33;;;1.02;;
51836;SDS011;38941;53.254;6.600;2023-07-20T02:19:24;1.88;;;1.33;;
51836;SDS011;38941;53.254;6.600;2023-07-20T02:21:25;2.10;;;1.63;;
51836;SDS011;38941;53.254;6.600;2023-07-20T02:23:26;1.50;;;1.20;;
51836;SDS011;38941;53.254;6.600;2023-07-20T02:25:26;3.42;;;1.45;;
51836;SDS011;38941;53.254;6.600;2023-07-20T02:27:27;2.13;;;1.60;;
51836;SDS011;38941;53.254;6.600;2023-07-20T02:29:28;4.60;;;1.40;;
51836;SDS011;38941;53.254;6.600;2023-07-20T02:31:29;6.07;;;1.40;;
51836;SDS011;38941;53.254;6.600;2023-07-20T02:33:29;1.20;;;1.05;;
51836;SDS011;38941;53.254;6.600;2023-07-20T02:35:30;2.10;;;1.30;;
51836;SDS011;38941;53.254;6.600;2023-07-20T02:37:31;4.18;;;1.25;;
51836;SDS011;38941;53.254;6.600;2023-07-20T02:39:32;5.45;;;1.30;;
51836;SDS011;38941;53.254;6.600;2023-07-20T02:41:33;6.28;;;1.55;;
51836;SDS011;38941;53.254;6.600;2023-07-20T02:43:34;2.13;;;1.10;;
51836;SDS011;38941;53.254;6.600;2023-07-20T02:45:35;2.63;;;1.27;;
51836;SDS011;38941;53.254;6.600;2023-07-20T02:47:39;2.17;;;1.15;;
51836;SDS011;38941;53.254;6.600;2023-07-20T02:49:41;1.45;;;0.95;;
51836;SDS011;38941;53.254;6.600;2023-07-20T02:51:42;8.45;;;1.35;;
51836;SDS011;38941;53.254;6.600;2023-07-20T02:53:43;3.28;;;1.30;;
51836;SDS011;38941;53.254;6.600;2023-07-20T02:55:43;4.05;;;1.90;;
51836;SDS011;38941;53.254;6.600;2023-07-20T02:57:44;4.70;;;1.30;;
51836;SDS011;38941;53.254;6.600;2023-07-20T02:59:45;4.32;;;1.30;;
51836;SDS011;38941;53.254;6.600;2023-07-20T03:01:46;1.92;;;1.40;;
51836;SDS011;38941;53.254;6.600;2023-07-20T03:03:47;4.90;;;1.20;;
51836;SDS011;38941;53.254;6.600;2023-07-20T03:05:48;3.22;;;1.52;;
51836;SDS011;38941;53.254;6.600;2023-07-20T03:07:55;2.35;;;1.00;;
51836;SDS011;38941;53.254;6.600;2023-07-20T03:09:55;3.70;;;1.20;;
51836;SDS011;38941;53.254;6.600;2023-07-20T03:11:56;2.65;;;1.20;;
51836;SDS011;38941;53.254;6.600;2023-07-20T03:13:57;1.63;;;1.40;;
51836;SDS011;38941;53.254;6.600;2023-07-20T03:15:58;4.60;;;1.35;;
51836;SDS011;38941;53.254;6.600;2023-07-20T03:17:59;1.15;;;1.00;;
51836;SDS011;38941;53.254;6.600;2023-07-20T03:20:00;5.10;;;1.15;;
51836;SDS011;38941;53.254;6.600;2023-07-20T03:22:00;3.63;;;1.92;;
51836;SDS011;38941;53.254;6.600;2023-07-20T03:24:01;6.07;;;1.58;;
51836;SDS011;38941;53.254;6.600;2023-07-20T03:26:02;1.95;;;1.15;;
51836;SDS011;38941;53.254;6.600;2023-07-20T03:28:03;6.60;;;1.08;;
51836;SDS011;38941;53.254;6.600;2023-07-20T03:30:04;3.28;;;1.35;;
51836;SDS011;38941;53.254;6.600;2023-07-20T03:32:07;3.55;;;1.48;;
51836;SDS011;38941;53.254;6.600;2023-07-20T03:34:08;3.58;;;2.03;;
51836;SDS011;38941;53.254;6.600;2023-07-20T03:36:09;3.50;;;1.33;;
51836;SDS011;38941;53.254;6.600;2023-07-20T03:38:10;3.53;;;1.70;;
51836;SDS011;38941;53.254;6.600;2023-07-20T03:40:11;7.57;;;1.30;;
51836;SDS011;38941;53.254;6.600;2023-07-20T03:42:11;3.17;;;1.40;;
51836;SDS011;38941;53.254;6.600;2023-07-20T03:44:12;2.35;;;1.10;;
51836;SDS011;38941;53.254;6.600;2023-07-20T03:46:13;2.08;;;1.42;;
51836;SDS011;38941;53.254;6.600;2023-07-20T03:48:15;2.80;;;1.33;;
51836;SDS011;38941;53.254;6.600;2023-07-20T03:50:17;2.47;;;1.15;;
51836;SDS011;38941;53.254;6.600;2023-07-20T03:52:17;1.45;;;1.20;;
51836;SDS011;38941;53.254;6.600;2023-07-20T03:54:18;3.70;;;1.40;;
51836;SDS011;38941;53.254;6.600;2023-07-20T03:56:19;7.20;;;2.15;;
51836;SDS011;38941;53.254;6.600;2023-07-20T03:58:19;2.65;;;1.42;;
51836;SDS011;38941;53.254;6.600;2023-07-20T04:00:21;6.88;;;1.42;;
51836;SDS011;38941;53.254;6.600;2023-07-20T04:02:22;2.58;;;1.27;;
51836;SDS011;38941;53.254;6.600;2023-07-20T04:04:23;2.15;;;1.40;;
51836;SDS011;38941;53.254;6.600;2023-07-20T04:06:23;3.95;;;1.50;;
51836;SDS011;38941;53.254;6.600;2023-07-20T04:08:24;3.08;;;1.40;;
51836;SDS011;38941;53.254;6.600;2023-07-20T04:10:25;2.28;;;1.48;;
51836;SDS011;38941;53.254;6.600;2023-07-20T04:12:26;2.55;;;1.48;;
51836;SDS011;38941;53.254;6.600;2023-07-20T04:14:27;1.95;;;1.50;;
51836;SDS011;38941;53.254;6.600;2023-07-20T04:16:28;2.67;;;1.38;;
51836;SDS011;38941;53.254;6.600;2023-07-20T04:18:28;2.70;;;1.15;;
51836;SDS011;38941;53.254;6.600;2023-07-20T04:20:29;2.50;;;1.38;;
51836;SDS011;38941;53.254;6.600;2023-07-20T04:22:30;1.65;;;1.20;;
51836;SDS011;38941;53.254;6.600;2023-07-20T04:24:31;3.85;;;1.50;;
51836;SDS011;38941;53.254;6.600;2023-07-20T04:26:31;1.30;;;1.13;;
51836;SDS011;38941;53.254;6.600;2023-07-20T04:28:32;2.92;;;1.65;;
51836;SDS011;38941;53.254;6.600;2023-07-20T04:30:34;1.58;;;1.40;;
51836;SDS011;38941;53.254;6.600;2023-07-20T04:32:38;2.05;;;1.60;;
51836;SDS011;38941;53.254;6.600;2023-07-20T04:34:45;2.55;;;1.70;;
51836;SDS011;38941;53.254;6.600;2023-07-20T04:36:46;4.28;;;1.77;;
51836;SDS011;38941;53.254;6.600;2023-07-20T04:38:47;2.42;;;1.40;;
51836;SDS011;38941;53.254;6.600;2023-07-20T04:40:48;2.45;;;1.38;;
51836;SDS011;38941;53.254;6.600;2023-07-20T04:42:49;2.17;;;1.20;;
51836;SDS011;38941;53.254;6.600;2023-07-20T04:44:50;2.78;;;1.55;;
51836;SDS011;38941;53.254;6.600;2023-07-20T04:46:51;3.67;;;1.65;;
51836;SDS011;38941;53.254;6.600;2023-07-20T04:48:51;3.15;;;1.45;;
51836;SDS011;38941;53.254;6.600;2023-07-20T04:50:52;2.58;;;1.30;;
51836;SDS011;38941;53.254;6.600;2023-07-20T04:52:53;1.85;;;1.52;;
51836;SDS011;38941;53.254;6.600;2023-07-20T04:54:53;6.43;;;2.60;;
51836;SDS011;38941;53.254;6.600;2023-07-20T04:56:54;5.38;;;2.13;;
51836;SDS011;38941;53.254;6.600;2023-07-20T04:58:55;5.40;;;1.30;;
51836;SDS011;38941;53.254;6.600;2023-07-20T05:00:56;5.50;;;1.52;;
51836;SDS011;38941;53.254;6.600;2023-07-20T05:02:59;3.25;;;1.20;;
51836;SDS011;38941;53.254;6.600;2023-07-20T05:05:00;1.20;;;1.13;;
51836;SDS011;38941;53.254;6.600;2023-07-20T05:07:02;3.90;;;1.30;;
51836;SDS011;38941;53.254;6.600;2023-07-20T05:09:02;3.20;;;1.27;;
51836;SDS011;38941;53.254;6.600;2023-07-20T05:11:03;4.60;;;1.50;;
51836;SDS011;38941;53.254;6.600;2023-07-20T05:13:04;3.67;;;1.20;;
51836;SDS011;38941;53.254;6.600;2023-07-20T05:15:05;2.13;;;1.45;;
51836;SDS011;38941;53.254;6.600;2023-07-20T05:17:06;3.90;;;1.20;;
51836;SDS011;38941;53.254;6.600;2023-07-20T05:19:06;1.80;;;1.35;;
51836;SDS011;38941;53.254;6.600;2023-07-20T05:21:07;3.70;;;1.25;;
51836;SDS011;38941;53.254;6.600;2023-07-20T05:23:08;4.18;;;1.33;;
51836;SDS011;38941;53.254;6.600;2023-07-20T05:25:09;3.03;;;1.30;;
51836;SDS011;38941;53.254;6.600;2023-07-20T05:27:12;1.20;;;1.02;;
51836;SDS011;38941;53.254;6.600;2023-07-20T05:29:13;2.63;;;0.80;;
51836;SDS011;38941;53.254;6.600;2023-07-20T05:31:14;4.47;;;1.00;;
51836;SDS011;38941;53.254;6.600;2023-07-20T05:33:14;3.70;;;1.13;;
51836;SDS011;38941;53.254;6.600;2023-07-20T05:35:15;2.92;;;1.30;;
51836;SDS011;38941;53.254;6.600;2023-07-20T05:37:17;2.08;;;0.80;;
51836;SDS011;38941;53.254;6.600;2023-07-20T05:39:17;5.50;;;1.38;;
51836;SDS011;38941;53.254;6.600;2023-07-20T05:41:18;1.83;;;1.30;;
51836;SDS011;38941;53.254;6.600;2023-07-20T05:43:19;3.50;;;1.17;;
51836;SDS011;38941;53.254;6.600;2023-07-20T05:45:20;4.55;;;0.93;;
51836;SDS011;38941;53.254;6.600;2023-07-20T05:47:20;3.45;;;1.33;;
51836;SDS011;38941;53.254;6.600;2023-07-20T05:49:21;3.15;;;1.30;;
51836;SDS011;38941;53.254;6.600;2023-07-20T05:51:22;4.82;;;1.10;;
51836;SDS011;38941;53.254;6.600;2023-07-20T05:53:23;1.95;;;0.85;;
51836;SDS011;38941;53.254;6.600;2023-07-20T05:55:27;3.40;;;0.90;;
51836;SDS011;38941;53.254;6.600;2023-07-20T05:57:27;3.83;;;1.30;;
51836;SDS011;38941;53.254;6.600;2023-07-20T05:59:28;1.33;;;0.65;;
51836;SDS011;38941;53.254;6.600;2023-07-20T06:01:31;9.13;;;1.92;;
51836;SDS011;38941;53.254;6.600;2023-07-20T06:03:34;4.47;;;0.80;;
51836;SDS011;38941;53.254;6.600;2023-07-20T06:05:35;4.68;;;0.70;;
51836;SDS011;38941;53.254;6.600;2023-07-20T06:07:36;4.85;;;0.85;;
51836;SDS011;38941;53.254;6.600;2023-07-20T06:09:37;7.25;;;0.70;;
51836;SDS011;38941;53.254;6.600;2023-07-20T06:11:38;3.75;;;0.73;;
51836;SDS011;38941;53.254;6.600;2023-07-20T06:13:39;1.77;;;0.70;;
51836;SDS011;38941;53.254;6.600;2023-07-20T06:15:40;1.67;;;0.50;;
51836;SDS011;38941;53.254;6.600;2023-07-20T06:17:41;3.55;;;0.65;;
51836;SDS011;38941;53.254;6.600;2023-07-20T06:19:42;5.70;;;1.48;;
51836;SDS011;38941;53.254;6.600;2023-07-20T06:21:43;2.05;;;0.80;;
51836;SDS011;38941;53.254;6.600;2023-07-20T06:23:44;2.17;;;1.33;;
51836;SDS011;38941;53.254;6.600;2023-07-20T06:25:45;0.88;;;0.50;;
51836;SDS011;38941;53.254;6.600;2023-07-20T06:27:46;2.50;;;0.80;;
51836;SDS011;38941;53.254;6.600;2023-07-20T06:31:54;4.10;;;0.80;;
51836;SDS011;38941;53.254;6.600;2023-07-20T06:33:55;2.75;;;0.68;;
51836;SDS011;38941;53.254;6.600;2023-07-20T06:35:55;2.38;;;0.75;;
51836;SDS011;38941;53.254;6.600;2023-07-20T06:37:59;1.80;;;0.52;;
51836;SDS011;38941;53.254;6.600;2023-07-20T06:40:01;2.20;;;0.80;;
51836;SDS011;38941;53.254;6.600;2023-07-20T06:42:06;4.38;;;0.90;;
51836;SDS011;38941;53.254;6.600;2023-07-20T06:44:07;5.63;;;1.20;;
51836;SDS011;38941;53.254;6.600;2023-07-20T06:46:09;4.15;;;0.70;;
51836;SDS011;38941;53.254;6.600;2023-07-20T06:48:10;3.00;;;0.80;;
51836;SDS011;38941;53.254;6.600;2023-07-20T06:50:10;4.53;;;1.58;;
51836;SDS011;38941;53.254;6.600;2023-07-20T06:52:11;6.93;;;1.17;;
51836;SDS011;38941;53.254;6.600;2023-07-20T06:54:12;5.45;;;1.58;;
51836;SDS011;38941;53.254;6.600;2023-07-20T06:56:12;3.85;;;1.42;;
51836;SDS011;38941;53.254;6.600;2023-07-20T06:58:13;9.65;;;1.42;;
51836;SDS011;38941;53.254;6.600;2023-07-20T07:00:16;2.13;;;0.90;;
51836;SDS011;38941;53.254;6.600;2023-07-20T07:02:17;6.63;;;1.30;;
51836;SDS011;38941;53.254;6.600;2023-07-20T07:04:18;4.78;;;1.25;;
51836;SDS011;38941;53.254;6.600;2023-07-20T07:06:19;1.88;;;0.98;;
51836;SDS011;38941;53.254;6.600;2023-07-20T07:08:21;6.65;;;1.45;;
51836;SDS011;38941;53.254;6.600;2023-07-20T07:10:21;3.83;;;1.15;;
51836;SDS011;38941;53.254;6.600;2023-07-20T07:12:22;4.80;;;1.65;;
51836;SDS011;38941;53.254;6.600;2023-07-20T07:14:23;3.65;;;0.90;;
51836;SDS011;38941;53.254;6.600;2023-07-20T07:16:23;4.50;;;1.23;;
51836;SDS011;38941;53.254;6.600;2023-07-20T07:18:24;2.25;;;1.00;;
51836;SDS011;38941;53.254;6.600;2023-07-20T07:20:26;1.48;;;0.90;;
51836;SDS011;38941;53.254;6.600;2023-07-20T07:22:27;2.38;;;0.90;;
51836;SDS011;38941;53.254;6.600;2023-07-20T07:24:29;4.68;;;1.30;;
51836;SDS011;38941;53.254;6.600;2023-07-20T07:26:33;3.05;;;1.40;;
51836;SDS011;38941;53.254;6.600;2023-07-20T07:28:34;2.55;;;1.08;;
51836;SDS011;38941;53.254;6.600;2023-07-20T07:30:35;5.03;;;1.00;;
51836;SDS011;38941;53.254;6.600;2023-07-20T07:32:35;4.38;;;1.95;;
51836;SDS011;38941;53.254;6.600;2023-07-20T07:34:36;5.30;;;1.15;;
51836;SDS011;38941;53.254;6.600;2023-07-20T07:36:37;5.00;;;0.90;;
51836;SDS011;38941;53.254;6.600;2023-07-20T07:38:38;4.80;;;1.17;;
51836;SDS011;38941;53.254;6.600;2023-07-20T07:40:39;3.25;;;1.15;;
51836;SDS011;38941;53.254;6.600;2023-07-20T07:42:41;7.03;;;1.40;;
51836;SDS011;38941;53.254;6.600;2023-07-20T07:44:42;8.25;;;1.33;;
51836;SDS011;38941;53.254;6.600;2023-07-20T07:46:43;3.78;;;0.82;;
51836;SDS011;38941;53.254;6.600;2023-07-20T07:48:44;3.13;;;1.02;;
51836;SDS011;38941;53.254;6.600;2023-07-20T07:50:45;4.15;;;0.82;;
51836;SDS011;38941;53.254;6.600;2023-07-20T07:52:45;4.72;;;0.95;;
51836;SDS011;38941;53.254;6.600;2023-07-20T07:54:47;5.00;;;0.88;;
51836;SDS011;38941;53.254;6.600;2023-07-20T07:56:48;7.00;;;1.20;;
51836;SDS011;38941;53.254;6.600;2023-07-20T07:58:49;4.53;;;0.70;;
51836;SDS011;38941;53.254;6.600;2023-07-20T08:00:53;2.72;;;0.57;;
51836;SDS011;38941;53.254;6.600;2023-07-20T08:02:54;4.55;;;0.80;;
51836;SDS011;38941;53.254;6.600;2023-07-20T08:04:55;4.57;;;0.60;;
51836;SDS011;38941;53.254;6.600;2023-07-20T08:06:56;3.03;;;0.70;;
51836;SDS011;38941;53.254;6.600;2023-07-20T08:08:57;2.95;;;0.68;;
51836;SDS011;38941;53.254;6.600;2023-07-20T08:10:59;3.47;;;0.98;;
51836;SDS011;38941;53.254;6.600;2023-07-20T08:13:00;2.50;;;0.80;;
51836;SDS011;38941;53.254;6.600;2023-07-20T08:15:04;2.08;;;0.65;;
51836;SDS011;38941;53.254;6.600;2023-07-20T08:17:05;2.67;;;0.90;;
51836;SDS011;38941;53.254;6.600;2023-07-20T08:19:07;1.27;;;0.65;;
51836;SDS011;38941;53.254;6.600;2023-07-20T08:21:08;1.58;;;0.52;;
51836;SDS011;38941;53.254;6.600;2023-07-20T08:23:09;2.17;;;0.68;;
51836;SDS011;38941;53.254;6.600;2023-07-20T08:25:10;2.78;;;0.60;;
51836;SDS011;38941;53.254;6.600;2023-07-20T08:27:12;3.42;;;0.60;;
51836;SDS011;38941;53.254;6.600;2023-07-20T08:29:13;1.23;;;0.40;;
51836;SDS011;38941;53.254;6.600;2023-07-20T08:31:14;1.27;;;0.50;;
51836;SDS011;38941;53.254;6.600;2023-07-20T08:33:15;3.50;;;0.98;;
51836;SDS011;38941;53.254;6.600;2023-07-20T08:35:19;2.90;;;0.40;;
51836;SDS011;38941;53.254;6.600;2023-07-20T08:37:20;1.23;;;0.50;;
51836;SDS011;38941;53.254;6.600;2023-07-20T08:39:21;9.40;;;1.35;;
51836;SDS011;38941;53.254;6.600;2023-07-20T08:41:22;1.70;;;0.47;;
51836;SDS011;38941;53.254;6.600;2023-07-20T08:43:24;3.08;;;0.50;;
51836;SDS011;38941;53.254;6.600;2023-07-20T08:45:26;7.20;;;0.75;;
51836;SDS011;38941;53.254;6.600;2023-07-20T08:47:32;0.60;;;0.35;;
51836;SDS011;38941;53.254;6.600;2023-07-20T08:49:33;4.43;;;0.57;;
51836;SDS011;38941;53.254;6.600;2023-07-20T08:51:35;1.73;;;0.45;;
51836;SDS011;38941;53.254;6.600;2023-07-20T08:53:36;1.80;;;0.30;;
51836;SDS011;38941;53.254;6.600;2023-07-20T08:55:37;1.55;;;0.30;;
51836;SDS011;38941;53.254;6.600;2023-07-20T08:57:39;1.92;;;0.80;;
51836;SDS011;38941;53.254;6.600;2023-07-20T08:59:41;2.65;;;0.63;;
51836;SDS011;38941;53.254;6.600;2023-07-20T09:01:43;2.35;;;0.40;;
51836;SDS011;38941;53.254;6.600;2023-07-20T09:03:46;4.60;;;0.47;;
51836;SDS011;38941;53.254;6.600;2023-07-20T09:05:47;2.30;;;0.52;;
51836;SDS011;38941;53.254;6.600;2023-07-20T09:07:48;2.67;;;0.35;;
51836;SDS011;38941;53.254;6.600;2023-07-20T09:09:49;1.33;;;0.57;;
51836;SDS011;38941;53.254;6.600;2023-07-20T09:11:50;1.05;;;0.40;;
51836;SDS011;38941;53.254;6.600;2023-07-20T09:14:07;0.98;;;0.30;;
51836;SDS011;38941;53.254;6.600;2023-07-20T09:16:08;2.17;;;0.50;;
51836;SDS011;38941;53.254;6.600;2023-07-20T09:18:10;0.77;;;0.47;;
51836;SDS011;38941;53.254;6.600;2023-07-20T09:20:11;3.97;;;0.50;;
51836;SDS011;38941;53.254;6.600;2023-07-20T09:22:12;1.00;;;0.45;;
51836;SDS011;38941;53.254;6.600;2023-07-20T09:24:13;1.35;;;0.40;;
51836;SDS011;38941;53.254;6.600;2023-07-20T09:26:14;2.08;;;0.55;;
51836;SDS011;38941;53.254;6.600;2023-07-20T09:28:16;4.30;;;0.50;;
51836;SDS011;38941;53.254;6.600;2023-07-20T09:30:18;1.95;;;0.60;;
51836;SDS011;38941;53.254;6.600;2023-07-20T09:32:20;3.40;;;0.80;;
51836;SDS011;38941;53.254;6.600;2023-07-20T09:34:21;3.58;;;0.70;;
51836;SDS011;38941;53.254;6.600;2023-07-20T09:36:22;1.92;;;0.60;;
51836;SDS011;38941;53.254;6.600;2023-07-20T09:38:23;0.57;;;0.30;;
51836;SDS011;38941;53.254;6.600;2023-07-20T09:40:27;2.17;;;0.55;;
51836;SDS011;38941;53.254;6.600;2023-07-20T09:42:28;0.57;;;0.30;;
51836;SDS011;38941;53.254;6.600;2023-07-20T09:44:29;1.35;;;0.40;;
51836;SDS011;38941;53.254;6.600;2023-07-20T09:46:44;1.65;;;0.40;;
51836;SDS011;38941;53.254;6.600;2023-07-20T09:48:54;0.90;;;0.38;;
51836;SDS011;38941;53.254;6.600;2023-07-20T09:50:55;3.75;;;0.43;;
51836;SDS011;38941;53.254;6.600;2023-07-20T09:52:57;2.72;;;0.63;;
51836;SDS011;38941;53.254;6.600;2023-07-20T09:54:59;3.83;;;0.50;;
51836;SDS011;38941;53.254;6.600;2023-07-20T09:57:01;1.75;;;0.52;;
51836;SDS011;38941;53.254;6.600;2023-07-20T09:59:03;1.27;;;0.40;;
51836;SDS011;38941;53.254;6.600;2023-07-20T10:01:05;4.45;;;1.05;;
51836;SDS011;38941;53.254;6.600;2023-07-20T10:03:14;2.67;;;0.40;;
51836;SDS011;38941;53.254;6.600;2023-07-20T10:05:18;4.97;;;0.65;;
51836;SDS011;38941;53.254;6.600;2023-07-20T10:07:21;3.47;;;0.77;;
51836;SDS011;38941;53.254;6.600;2023-07-20T10:09:26;1.35;;;0.47;;
51836;SDS011;38941;53.254;6.600;2023-07-20T10:11:33;2.00;;;0.80;;
51836;SDS011;38941;53.254;6.600;2023-07-20T10:13:37;1.42;;;0.40;;
51836;SDS011;38941;53.254;6.600;2023-07-20T10:15:54;3.33;;;0.63;;
51836;SDS011;38941;53.254;6.600;2023-07-20T10:20:05;3.10;;;0.63;;
51836;SDS011;38941;53.254;6.600;2023-07-20T10:22:09;1.60;;;0.30;;
51836;SDS011;38941;53.254;6.600;2023-07-20T10:24:12;4.25;;;0.38;;
51836;SDS011;38941;53.254;6.600;2023-07-20T10:26:14;0.73;;;0.47;;
51836;SDS011;38941;53.254;6.600;2023-07-20T10:28:15;1.17;;;0.43;;
51836;SDS011;38941;53.254;6.600;2023-07-20T10:30:17;1.30;;;0.40;;
51836;SDS011;38941;53.254;6.600;2023-07-20T10:32:19;0.70;;;0.38;;
51836;SDS011;38941;53.254;6.600;2023-07-20T10:34:20;4.65;;;0.50;;
51836;SDS011;38941;53.254;6.600;2023-07-20T10:36:25;1.63;;;0.60;;
51836;SDS011;38941;53.254;6.600;2023-07-20T10:40:40;2.10;;;0.70;;
51836;SDS011;38941;53.254;6.600;2023-07-20T10:42:41;1.73;;;0.65;;
51836;SDS011;38941;53.254;6.600;2023-07-20T10:44:42;2.25;;;0.60;;
51836;SDS011;38941;53.254;6.600;2023-07-20T10:46:46;1.88;;;0.57;;
51836;SDS011;38941;53.254;6.600;2023-07-20T10:49:00;1.23;;;0.50;;
51836;SDS011;38941;53.254;6.600;2023-07-20T10:51:14;3.55;;;0.65;;
51836;SDS011;38941;53.254;6.600;2023-07-20T10:53:21;1.45;;;0.40;;
51836;SDS011;38941;53.254;6.600;2023-07-20T10:55:21;2.92;;;0.40;;
51836;SDS011;38941;53.254;6.600;2023-07-20T10:57:23;1.23;;;0.40;;
51836;SDS011;38941;53.254;6.600;2023-07-20T11:01:35;4.45;;;0.50;;
51836;SDS011;38941;53.254;6.600;2023-07-20T11:03:37;2.08;;;0.77;;
51836;SDS011;38941;53.254;6.600;2023-07-20T11:05:40;1.17;;;0.43;;
51836;SDS011;38941;53.254;6.600;2023-07-20T11:07:42;1.30;;;0.68;;
51836;SDS011;38941;53.254;6.600;2023-07-20T11:09:43;0.35;;;0.30;;
51836;SDS011;38941;53.254;6.600;2023-07-20T11:11:47;0.75;;;0.55;;
51836;SDS011;38941;53.254;6.600;2023-07-20T11:13:56;1.83;;;0.50;;
51836;SDS011;38941;53.254;6.600;2023-07-20T11:16:01;2.08;;;0.40;;
51836;SDS011;38941;53.254;6.600;2023-07-20T11:18:15;2.47;;;0.40;;
51836;SDS011;38941;53.254;6.600;2023-07-20T11:20:16;2.70;;;0.95;;
51836;SDS011;38941;53.254;6.600;2023-07-20T11:22:17;1.88;;;0.40;;
51836;SDS011;38941;53.254;6.600;2023-07-20T11:24:18;0.75;;;0.50;;
51836;SDS011;38941;53.254;6.600;2023-07-20T11:26:18;1.88;;;0.68;;
51836;SDS011;38941;53.254;6.600;2023-07-20T11:28:19;0.55;;;0.40;;
51836;SDS011;38941;53.254;6.600;2023-07-20T11:30:21;1.17;;;0.30;;
51836;SDS011;38941;53.254;6.600;2023-07-20T11:32:22;1.98;;;1.02;;
51836;SDS011;38941;53.254;6.600;2023-07-20T11:34:23;2.08;;;0.40;;
51836;SDS011;38941;53.254;6.600;2023-07-20T11:36:24;2.30;;;0.20;;
51836;SDS011;38941;53.254;6.600;2023-07-20T11:38:25;1.98;;;0.38;;
51836;SDS011;38941;53.254;6.600;2023-07-20T11:40:25;2.17;;;0.40;;
51836;SDS011;38941;53.254;6.600;2023-07-20T11:42:26;2.90;;;0.30;;
51836;SDS011;38941;53.254;6.600;2023-07-20T11:44:28;1.02;;;0.40;;
51836;SDS011;38941;53.254;6.600;2023-07-20T11:46:29;0.90;;;0.32;;
51836;SDS011;38941;53.254;6.600;2023-07-20T11:48:31;3.55;;;0.50;;
51836;SDS011;38941;53.254;6.600;2023-07-20T11:50:31;4.07;;;0.82;;
51836;SDS011;38941;53.254;6.600;2023-07-20T11:52:38;2.72;;;0.40;;
51836;SDS011;38941;53.254;6.600;2023-07-20T11:54:39;2.70;;;1.10;;
51836;SDS011;38941;53.254;6.600;2023-07-20T11:56:41;3.13;;;0.65;;
51836;SDS011;38941;53.254;6.600;2023-07-20T11:58:45;1.67;;;0.38;;
51836;SDS011;38941;53.254;6.600;2023-07-20T12:00:47;0.88;;;0.50;;
51836;SDS011;38941;53.254;6.600;2023-07-20T12:02:48;1.33;;;0.40;;
51836;SDS011;38941;53.254;6.600;2023-07-20T12:04:49;1.65;;;0.50;;
51836;SDS011;38941;53.254;6.600;2023-07-20T12:06:49;1.25;;;0.30;;
51836;SDS011;38941;53.254;6.600;2023-07-20T12:08:56;3.92;;;0.50;;
51836;SDS011;38941;53.254;6.600;2023-07-20T12:10:58;1.65;;;0.40;;
51836;SDS011;38941;53.254;6.600;2023-07-20T12:13:01;0.98;;;0.57;;
51836;SDS011;38941;53.254;6.600;2023-07-20T12:17:33;1.35;;;0.70;;
51836;SDS011;38941;53.254;6.600;2023-07-20T12:19:37;1.17;;;0.35;;
51836;SDS011;38941;53.254;6.600;2023-07-20T12:21:39;2.10;;;0.47;;
51836;SDS011;38941;53.254;6.600;2023-07-20T12:23:42;1.70;;;0.45;;
51836;SDS011;38941;53.254;6.600;2023-07-20T12:25:44;0.80;;;0.32;;
51836;SDS011;38941;53.254;6.600;2023-07-20T12:27:47;1.67;;;0.60;;
51836;SDS011;38941;53.254;6.600;2023-07-20T12:29:49;1.63;;;0.45;;
51836;SDS011;38941;53.254;6.600;2023-07-20T12:31:51;1.40;;;0.40;;
51836;SDS011;38941;53.254;6.600;2023-07-20T12:33:52;0.70;;;0.35;;
51836;SDS011;38941;53.254;6.600;2023-07-20T12:35:56;2.67;;;0.35;;
51836;SDS011;38941;53.254;6.600;2023-07-20T12:37:59;0.75;;;0.40;;